UAE83E OMDB-KLAX
Flight info
| Callsign | UAE83E |
|---|---|
| Flight time | N/A |
| Altitude | 30000 |
| Route | KUTLI L519 ATUDO M318 GOLGU M550 RIBOT DCT MIGMA DCT SITUK M321 RESAL/N0502F320 M321 KSA T503 OVANO L768 FIRAS R655 LEBOR UR655 BALMA L620 VESAR UB545 MUT UL619 OKLAM/N0489F340 UL619 MAKOL DCT TGM DCT KENIN DCT LENOV DCT ROGAL DCT ARKUG DCT AMROR DCT MAKUR DCT PESUR/N0494F360 DCT VALDI/M084F360 DCT 65N010W 6630N02000W 6730N03000W 6730N04000W 67N050W/M084F380 DCT EPMAN/N0478F380 DCT 6530N07000W 6430N08000W 6130N09000W 5530N10000W DCT KU84Q/N0468F400 DCT FFU DCT WINEN DCT OVETO J107 BLD DCT HAKMN ANJLL4 |
| Aircraft | A388/J-SADE2E3FGHIJ3J4J5M1RWXY/LB1D1 |
Departure
| Time | 2026-05-06 04:17 |
|---|---|
| Airport | Dubai International Airport (OMDB) |
Arrival
| Time | N/A |
|---|---|
| Airport | Los Angeles International Airport (KLAX) |
| Time | Latitude | Longitude | Altitude | Speed | Heading |
|---|---|---|---|---|---|
| 2026-05-06 03:32 | 25.24528 | 55.37051 | 26 ft | 0 kts | 211° |
| 2026-05-06 04:00 | 25.24538 | 55.37058 | 32 ft | 4 kts | 211° |
| 2026-05-06 04:01 | 25.24562 | 55.37073 | 32 ft | 4 kts | 211° |
| 2026-05-06 04:01 | 25.24580 | 55.37086 | 32 ft | 4 kts | 206° |
| 2026-05-06 04:01 | 25.24604 | 55.37093 | 32 ft | 4 kts | 164° |
| 2026-05-06 04:01 | 25.24624 | 55.37078 | 32 ft | 3 kts | 122° |
| 2026-05-06 04:02 | 25.24638 | 55.37054 | 26 ft | 4 kts | 122° |
| 2026-05-06 04:02 | 25.24645 | 55.37041 | 26 ft | 2 kts | 122° |
| 2026-05-06 04:07 | 25.24641 | 55.37049 | 26 ft | 2 kts | 122° |
| 2026-05-06 04:07 | 25.24629 | 55.37070 | 26 ft | 4 kts | 122° |
| 2026-05-06 04:07 | 25.24611 | 55.37102 | 29 ft | 6 kts | 122° |
| 2026-05-06 04:08 | 25.24587 | 55.37143 | 32 ft | 7 kts | 122° |
| 2026-05-06 04:08 | 25.24559 | 55.37192 | 29 ft | 8 kts | 122° |
| 2026-05-06 04:08 | 25.24528 | 55.37247 | 28 ft | 9 kts | 122° |
| 2026-05-06 04:08 | 25.24494 | 55.37307 | 29 ft | 9 kts | 122° |
| 2026-05-06 04:09 | 25.24458 | 55.37370 | 29 ft | 10 kts | 119° |
| 2026-05-06 04:09 | 25.24432 | 55.37441 | 30 ft | 10 kts | 102° |
| 2026-05-06 04:09 | 25.24425 | 55.37518 | 29 ft | 10 kts | 92° |
| 2026-05-06 04:09 | 25.24415 | 55.37593 | 29 ft | 10 kts | 113° |
| 2026-05-06 04:10 | 25.24391 | 55.37665 | 28 ft | 10 kts | 113° |
| 2026-05-06 04:10 | 25.24358 | 55.37733 | 26 ft | 10 kts | 122° |
| 2026-05-06 04:10 | 25.24320 | 55.37800 | 26 ft | 11 kts | 122° |
| 2026-05-06 04:10 | 25.24280 | 55.37869 | 26 ft | 11 kts | 121° |
| 2026-05-06 04:11 | 25.24241 | 55.37941 | 26 ft | 11 kts | 121° |
| 2026-05-06 04:11 | 25.24206 | 55.38013 | 27 ft | 9 kts | 95° |
| 2026-05-06 04:11 | 25.24217 | 55.38056 | 27 ft | 2 kts | 42° |
| 2026-05-06 04:11 | 25.24217 | 55.38057 | 27 ft | 0 kts | 40° |
| 2026-05-06 04:12 | 25.24221 | 55.38061 | 27 ft | 1 kts | 40° |
| 2026-05-06 04:12 | 25.24235 | 55.38072 | 28 ft | 4 kts | 36° |
| 2026-05-06 04:12 | 25.24254 | 55.38086 | 29 ft | 3 kts | 32° |
| 2026-05-06 04:13 | 25.24280 | 55.38104 | 30 ft | 9 kts | 31° |
| 2026-05-06 04:13 | 25.24368 | 55.38163 | 31 ft | 17 kts | 31° |
| 2026-05-06 04:13 | 25.24473 | 55.38234 | 28 ft | 17 kts | 31° |
| 2026-05-06 04:13 | 25.24504 | 55.38255 | 27 ft | 0 kts | 31° |
| 2026-05-06 04:14 | 25.24507 | 55.38257 | 27 ft | 2 kts | 31° |
| 2026-05-06 04:14 | 25.24526 | 55.38270 | 27 ft | 5 kts | 31° |
| 2026-05-06 04:14 | 25.24571 | 55.38300 | 27 ft | 9 kts | 31° |
| 2026-05-06 04:15 | 25.24624 | 55.38322 | 27 ft | 5 kts | 340° |
| 2026-05-06 04:15 | 25.24652 | 55.38295 | 27 ft | 7 kts | 310° |
| 2026-05-06 04:15 | 25.24682 | 55.38249 | 27 ft | 9 kts | 302° |
| 2026-05-06 04:15 | 25.24807 | 55.38019 | 30 ft | 64 kts | 302° |
| 2026-05-06 04:16 | 25.25155 | 55.37398 | 32 ft | 121 kts | 301° |
| 2026-05-06 04:16 | 25.25660 | 55.36487 | 29 ft | 158 kts | 301° |
| 2026-05-06 04:16 | 25.26283 | 55.35365 | 31 ft | 183 kts | 301° |
| 2026-05-06 04:16 | 25.26972 | 55.34146 | 267 ft | 182 kts | 301° |
| 2026-05-06 04:17 | 25.27621 | 55.32957 | 652 ft | 180 kts | 301° |
| 2026-05-06 04:17 | 25.28309 | 55.31768 | 868 ft | 185 kts | 304° |
| 2026-05-06 04:17 | 25.29003 | 55.30589 | 1195 ft | 185 kts | 300° |
| 2026-05-06 04:17 | 25.29416 | 55.29227 | 1237 ft | 193 kts | 266° |
| 2026-05-06 04:18 | 25.29047 | 55.27822 | 1320 ft | 191 kts | 239° |
| 2026-05-06 04:18 | 25.28404 | 55.26521 | 1367 ft | 196 kts | 239° |
| 2026-05-06 04:18 | 25.27767 | 55.25175 | 1425 ft | 199 kts | 241° |
| 2026-05-06 04:18 | 25.27147 | 55.23791 | 1481 ft | 202 kts | 242° |
| 2026-05-06 04:19 | 25.26543 | 55.22389 | 1558 ft | 198 kts | 242° |
| 2026-05-06 04:19 | 25.25949 | 55.20991 | 1618 ft | 201 kts | 242° |
| 2026-05-06 04:19 | 25.25358 | 55.19597 | 1781 ft | 202 kts | 243° |
| 2026-05-06 04:19 | 25.24753 | 55.18201 | 1835 ft | 206 kts | 237° |
| 2026-05-06 04:20 | 25.23761 | 55.17088 | 1860 ft | 205 kts | 205° |
| 2026-05-06 04:20 | 25.22398 | 55.16673 | 1925 ft | 205 kts | 178° |
| 2026-05-06 04:20 | 25.20974 | 55.16813 | 1986 ft | 208 kts | 172° |
| 2026-05-06 04:20 | 25.19527 | 55.17023 | 2034 ft | 211 kts | 162° |
| 2026-05-06 04:21 | 25.18248 | 55.17850 | 2086 ft | 222 kts | 135° |
| 2026-05-06 04:21 | 25.17389 | 55.19321 | 2219 ft | 237 kts | 118° |
| 2026-05-06 04:21 | 25.16627 | 55.20988 | 2345 ft | 253 kts | 118° |
| 2026-05-06 04:21 | 25.15796 | 55.22743 | 2610 ft | 261 kts | 119° |
| 2026-05-06 04:22 | 25.14941 | 55.24524 | 3018 ft | 264 kts | 118° |
| 2026-05-06 04:22 | 25.14075 | 55.26320 | 3384 ft | 267 kts | 117° |
| 2026-05-06 04:22 | 25.13197 | 55.28148 | 3775 ft | 270 kts | 118° |
| 2026-05-06 04:23 | 25.11422 | 55.31834 | 4615 ft | 274 kts | 117° |
| 2026-05-06 04:23 | 25.10539 | 55.33708 | 5022 ft | 276 kts | 114° |
| 2026-05-06 04:23 | 25.09752 | 55.35646 | 5449 ft | 278 kts | 114° |
| 2026-05-06 04:23 | 25.08965 | 55.37571 | 5890 ft | 279 kts | 114° |
| 2026-05-06 04:24 | 25.08155 | 55.39536 | 6320 ft | 281 kts | 114° |
| 2026-05-06 04:24 | 25.07341 | 55.41509 | 6723 ft | 284 kts | 114° |
| 2026-05-06 04:24 | 25.06536 | 55.43505 | 7142 ft | 286 kts | 112° |
| 2026-05-06 04:24 | 25.05760 | 55.45531 | 7552 ft | 288 kts | 112° |
| 2026-05-06 04:25 | 25.04985 | 55.47578 | 7968 ft | 290 kts | 112° |
| 2026-05-06 04:25 | 25.04196 | 55.49650 | 8378 ft | 293 kts | 112° |
| 2026-05-06 04:25 | 25.03400 | 55.51728 | 8807 ft | 295 kts | 112° |
| 2026-05-06 04:25 | 25.02606 | 55.53795 | 9292 ft | 296 kts | 113° |
| 2026-05-06 04:26 | 25.01753 | 55.55864 | 9694 ft | 298 kts | 120° |
| 2026-05-06 04:26 | 25.00677 | 55.57833 | 10010 ft | 304 kts | 122° |
| 2026-05-06 04:26 | 24.99557 | 55.59879 | 10119 ft | 317 kts | 121° |
| 2026-05-06 04:26 | 24.98405 | 55.62008 | 10248 ft | 329 kts | 121° |
| 2026-05-06 04:27 | 24.97211 | 55.64222 | 10348 ft | 341 kts | 121° |
| 2026-05-06 04:27 | 24.95995 | 55.66477 | 10564 ft | 349 kts | 121° |
| 2026-05-06 04:27 | 24.94752 | 55.68780 | 10941 ft | 351 kts | 121° |
| 2026-05-06 04:27 | 24.93426 | 55.71014 | 11330 ft | 352 kts | 126° |
| 2026-05-06 04:28 | 24.91947 | 55.73220 | 11726 ft | 355 kts | 126° |
| 2026-05-06 04:28 | 24.90483 | 55.75421 | 12111 ft | 357 kts | 126° |
| 2026-05-06 04:28 | 24.89009 | 55.77645 | 12519 ft | 359 kts | 126° |
| 2026-05-06 04:28 | 24.87533 | 55.79874 | 12930 ft | 361 kts | 126° |
| 2026-05-06 04:29 | 24.86048 | 55.82114 | 13348 ft | 363 kts | 126° |
| 2026-05-06 04:29 | 24.84554 | 55.84368 | 13721 ft | 365 kts | 126° |
| 2026-05-06 04:29 | 24.82994 | 55.86584 | 14036 ft | 368 kts | 134° |
| 2026-05-06 04:29 | 24.80934 | 55.88260 | 14372 ft | 370 kts | 154° |
| 2026-05-06 04:30 | 24.78475 | 55.89106 | 14731 ft | 373 kts | 173° |
| 2026-05-06 04:30 | 24.75914 | 55.89040 | 15067 ft | 375 kts | 192° |
| 2026-05-06 04:30 | 24.73462 | 55.88067 | 15365 ft | 378 kts | 210° |
| 2026-05-06 04:30 | 24.71412 | 55.86278 | 15743 ft | 378 kts | 229° |
| 2026-05-06 04:31 | 24.69971 | 55.83868 | 16069 ft | 379 kts | 247° |
| 2026-05-06 04:31 | 24.69287 | 55.81077 | 16392 ft | 380 kts | 266° |
| 2026-05-06 04:31 | 24.69426 | 55.78177 | 16727 ft | 380 kts | 284° |
| 2026-05-06 04:31 | 24.70373 | 55.75476 | 17066 ft | 380 kts | 302° |
| 2026-05-06 04:32 | 24.71892 | 55.73094 | 17415 ft | 380 kts | 309° |
| 2026-05-06 04:32 | 24.73525 | 55.70793 | 17681 ft | 384 kts | 305° |
| 2026-05-06 04:32 | 24.74765 | 55.68229 | 18013 ft | 386 kts | 290° |
| 2026-05-06 04:32 | 24.75390 | 55.65351 | 18336 ft | 389 kts | 277° |
| 2026-05-06 04:33 | 24.75531 | 55.62378 | 18642 ft | 390 kts | 270° |
| 2026-05-06 04:33 | 24.75407 | 55.59379 | 18953 ft | 391 kts | 266° |
| 2026-05-06 04:33 | 24.75170 | 55.56381 | 19250 ft | 392 kts | 265° |
| 2026-05-06 04:33 | 24.74906 | 55.53427 | 19535 ft | 394 kts | 265° |
| 2026-05-06 04:34 | 24.74635 | 55.50417 | 19817 ft | 395 kts | 265° |
| 2026-05-06 04:34 | 24.74371 | 55.47416 | 20171 ft | 394 kts | 265° |
| 2026-05-06 04:34 | 24.74112 | 55.44407 | 20453 ft | 395 kts | 265° |
| 2026-05-06 04:34 | 24.73857 | 55.41398 | 20748 ft | 396 kts | 265° |
| 2026-05-06 04:35 | 24.73600 | 55.38366 | 20999 ft | 398 kts | 265° |
| 2026-05-06 04:35 | 24.73343 | 55.35326 | 21223 ft | 401 kts | 265° |
| 2026-05-06 04:35 | 24.73083 | 55.32273 | 21562 ft | 400 kts | 265° |
| 2026-05-06 04:35 | 24.72823 | 55.29213 | 21790 ft | 403 kts | 265° |
| 2026-05-06 04:36 | 24.72560 | 55.26142 | 22067 ft | 403 kts | 265° |
| 2026-05-06 04:36 | 24.72296 | 55.23065 | 22325 ft | 405 kts | 265° |
| 2026-05-06 04:36 | 24.72034 | 55.20014 | 22591 ft | 406 kts | 265° |
| 2026-05-06 04:36 | 24.71767 | 55.16914 | 22857 ft | 407 kts | 265° |
| 2026-05-06 04:37 | 24.71496 | 55.13773 | 23128 ft | 408 kts | 265° |
| 2026-05-06 04:37 | 24.71229 | 55.10694 | 23380 ft | 410 kts | 265° |
| 2026-05-06 04:37 | 24.70958 | 55.07572 | 23608 ft | 411 kts | 265° |
| 2026-05-06 04:37 | 24.70686 | 55.04443 | 23840 ft | 411 kts | 265° |
| 2026-05-06 04:38 | 24.70413 | 55.01306 | 24074 ft | 412 kts | 265° |
| 2026-05-06 04:38 | 24.70139 | 54.98169 | 24299 ft | 412 kts | 265° |
| 2026-05-06 04:38 | 24.69863 | 54.95023 | 24522 ft | 413 kts | 265° |
| 2026-05-06 04:38 | 24.69587 | 54.91875 | 24738 ft | 414 kts | 264° |
| 2026-05-06 04:39 | 24.69235 | 54.88739 | 24941 ft | 415 kts | 257° |
| 2026-05-06 04:39 | 24.68315 | 54.85761 | 25135 ft | 417 kts | 244° |
| 2026-05-06 04:39 | 24.66752 | 54.83028 | 25356 ft | 419 kts | 232° |
| 2026-05-06 04:39 | 24.64694 | 54.80802 | 25573 ft | 423 kts | 219° |
| 2026-05-06 04:40 | 24.62194 | 54.79071 | 25762 ft | 426 kts | 212° |
| 2026-05-06 04:40 | 24.59620 | 54.77448 | 25964 ft | 427 kts | 212° |
| 2026-05-06 04:40 | 24.57049 | 54.75806 | 26180 ft | 428 kts | 212° |
| 2026-05-06 04:40 | 24.55309 | 54.74691 | 26285 ft | 430 kts | 212° |
| 2026-05-06 04:41 | 24.51870 | 54.72487 | 26581 ft | 431 kts | 212° |
| 2026-05-06 04:41 | 24.50147 | 54.71380 | 26734 ft | 432 kts | 212° |
| 2026-05-06 04:41 | 24.47549 | 54.69710 | 26965 ft | 433 kts | 212° |
| 2026-05-06 04:41 | 24.44940 | 54.68033 | 27203 ft | 434 kts | 213° |
| 2026-05-06 04:42 | 24.42320 | 54.66352 | 27437 ft | 435 kts | 213° |
| 2026-05-06 04:42 | 24.39723 | 54.64691 | 27687 ft | 437 kts | 213° |
| 2026-05-06 04:42 | 24.37095 | 54.63011 | 27946 ft | 438 kts | 213° |
| 2026-05-06 04:42 | 24.34450 | 54.61323 | 28193 ft | 439 kts | 213° |
| 2026-05-06 04:43 | 24.31807 | 54.59635 | 28442 ft | 441 kts | 213° |
| 2026-05-06 04:43 | 24.29146 | 54.57937 | 28710 ft | 442 kts | 213° |
| 2026-05-06 04:43 | 24.26570 | 54.56106 | 28952 ft | 441 kts | 219° |
| 2026-05-06 04:43 | 24.24305 | 54.53836 | 29128 ft | 440 kts | 232° |
| 2026-05-06 04:44 | 24.22509 | 54.51173 | 29399 ft | 440 kts | 239° |
| 2026-05-06 04:44 | 24.20938 | 54.48304 | 29669 ft | 440 kts | 242° |
| 2026-05-06 04:44 | 24.19445 | 54.45363 | 29857 ft | 443 kts | 242° |
| 2026-05-06 04:45 | 24.16412 | 54.39328 | 29848 ft | 459 kts | 242° |
| 2026-05-06 04:45 | 24.13243 | 54.33131 | 29845 ft | 470 kts | 242° |
| 2026-05-06 04:46 | 24.10028 | 54.26891 | 29825 ft | 470 kts | 242° |
| 2026-05-06 04:46 | 24.06834 | 54.20703 | 29824 ft | 469 kts | 242° |
| 2026-05-06 04:47 | 24.03624 | 54.14490 | 29828 ft | 469 kts | 242° |
| 2026-05-06 04:47 | 24.00411 | 54.08277 | 29831 ft | 469 kts | 242° |
| 2026-05-06 04:48 | 23.97186 | 54.02105 | 29854 ft | 469 kts | 241° |
| 2026-05-06 04:48 | 23.93915 | 53.95939 | 29857 ft | 468 kts | 241° |
| 2026-05-06 04:49 | 23.90646 | 53.89773 | 29856 ft | 468 kts | 241° |
| 2026-05-06 04:49 | 23.87376 | 53.83604 | 29847 ft | 469 kts | 241° |
| 2026-05-06 04:50 | 23.84125 | 53.77476 | 29833 ft | 469 kts | 241° |
| 2026-05-06 04:50 | 23.80854 | 53.71317 | 29835 ft | 469 kts | 240° |
| 2026-05-06 04:51 | 23.77574 | 53.65150 | 29836 ft | 470 kts | 240° |
| 2026-05-06 04:51 | 23.74284 | 53.58972 | 29848 ft | 470 kts | 240° |
| 2026-05-06 04:52 | 23.70987 | 53.52789 | 29848 ft | 472 kts | 240° |
| 2026-05-06 04:52 | 23.67712 | 53.46624 | 29845 ft | 471 kts | 241° |
| 2026-05-06 04:53 | 23.64437 | 53.40435 | 29852 ft | 471 kts | 240° |
| 2026-05-06 04:53 | 23.61156 | 53.34250 | 29851 ft | 471 kts | 240° |
| 2026-05-06 04:54 | 23.57870 | 53.28064 | 29852 ft | 471 kts | 240° |
| 2026-05-06 04:54 | 23.54575 | 53.21871 | 29852 ft | 471 kts | 240° |
| 2026-05-06 04:55 | 23.51297 | 53.15716 | 29855 ft | 472 kts | 240° |
| 2026-05-06 04:55 | 23.47997 | 53.09531 | 29854 ft | 472 kts | 240° |
| 2026-05-06 04:56 | 23.44696 | 53.03349 | 29848 ft | 472 kts | 240° |
| 2026-05-06 04:56 | 23.41397 | 52.97180 | 29851 ft | 471 kts | 240° |
| 2026-05-06 04:57 | 23.38168 | 52.91020 | 29850 ft | 470 kts | 241° |
| 2026-05-06 04:57 | 23.34999 | 52.84788 | 29847 ft | 471 kts | 241° |
| 2026-05-06 04:58 | 23.31815 | 52.78567 | 29843 ft | 471 kts | 241° |
| 2026-05-06 04:58 | 23.28614 | 52.72342 | 29850 ft | 470 kts | 241° |
| 2026-05-06 04:59 | 23.25418 | 52.66136 | 29846 ft | 470 kts | 241° |
| 2026-05-06 04:59 | 23.22236 | 52.59966 | 29845 ft | 470 kts | 241° |
| 2026-05-06 05:00 | 23.19040 | 52.53757 | 29844 ft | 470 kts | 243° |
| 2026-05-06 05:00 | 23.16572 | 52.47195 | 29849 ft | 470 kts | 251° |
| 2026-05-06 05:01 | 23.14470 | 52.40497 | 29845 ft | 470 kts | 251° |
| 2026-05-06 05:01 | 23.12335 | 52.33777 | 29843 ft | 470 kts | 251° |
| 2026-05-06 05:02 | 23.10202 | 52.27061 | 29845 ft | 470 kts | 251° |
| 2026-05-06 05:02 | 23.08063 | 52.20338 | 29847 ft | 470 kts | 251° |
| 2026-05-06 05:03 | 23.05927 | 52.13631 | 29842 ft | 470 kts | 251° |
| 2026-05-06 05:03 | 23.03801 | 52.06969 | 29840 ft | 470 kts | 251° |
| 2026-05-06 05:04 | 23.01652 | 52.00244 | 29836 ft | 471 kts | 250° |
| 2026-05-06 05:04 | 22.99495 | 51.93508 | 29841 ft | 472 kts | 250° |
| 2026-05-06 05:05 | 22.97353 | 51.86829 | 29842 ft | 471 kts | 250° |
| 2026-05-06 05:05 | 22.95192 | 51.80097 | 29839 ft | 471 kts | 250° |
| 2026-05-06 05:06 | 22.93031 | 51.73381 | 29838 ft | 472 kts | 250° |
| 2026-05-06 05:06 | 22.90864 | 51.66657 | 29838 ft | 472 kts | 250° |
| 2026-05-06 05:07 | 22.88704 | 51.59966 | 29841 ft | 472 kts | 250° |
| 2026-05-06 05:07 | 22.86531 | 51.53242 | 29839 ft | 471 kts | 250° |
| 2026-05-06 05:08 | 22.84891 | 51.46406 | 29831 ft | 472 kts | 261° |
| 2026-05-06 05:08 | 22.84731 | 51.39281 | 29842 ft | 474 kts | 272° |
| 2026-05-06 05:09 | 22.85200 | 51.32139 | 29823 ft | 475 kts | 272° |
| 2026-05-06 05:09 | 22.85635 | 51.24983 | 29842 ft | 476 kts | 272° |
| 2026-05-06 05:10 | 22.86072 | 51.17809 | 29842 ft | 476 kts | 272° |
| 2026-05-06 05:10 | 22.86506 | 51.10641 | 29845 ft | 476 kts | 272° |
| 2026-05-06 05:11 | 22.86936 | 51.03507 | 29850 ft | 476 kts | 272° |
| 2026-05-06 05:11 | 22.87365 | 50.96332 | 29851 ft | 476 kts | 272° |
| 2026-05-06 05:12 | 22.87790 | 50.89165 | 29852 ft | 476 kts | 272° |
| 2026-05-06 05:12 | 22.88210 | 50.82039 | 29853 ft | 476 kts | 272° |
| 2026-05-06 05:13 | 22.88628 | 50.74871 | 29851 ft | 476 kts | 272° |
| 2026-05-06 05:13 | 22.89044 | 50.67695 | 29855 ft | 476 kts | 272° |
| 2026-05-06 05:14 | 22.89456 | 50.60526 | 29854 ft | 476 kts | 271° |
| 2026-05-06 05:14 | 22.89865 | 50.53370 | 29855 ft | 473 kts | 272° |
| 2026-05-06 05:15 | 22.90265 | 50.46299 | 29855 ft | 472 kts | 271° |
| 2026-05-06 05:15 | 22.90665 | 50.39172 | 29852 ft | 473 kts | 272° |
| 2026-05-06 05:16 | 22.91062 | 50.32059 | 29850 ft | 472 kts | 271° |
| 2026-05-06 05:16 | 22.91455 | 50.24949 | 29855 ft | 472 kts | 271° |
| 2026-05-06 05:17 | 22.91843 | 50.17869 | 29853 ft | 472 kts | 271° |
| 2026-05-06 05:17 | 22.92229 | 50.10753 | 29853 ft | 472 kts | 271° |
| 2026-05-06 05:18 | 22.92614 | 50.03630 | 29855 ft | 472 kts | 271° |
| 2026-05-06 05:18 | 22.92994 | 49.96512 | 29863 ft | 472 kts | 271° |
| 2026-05-06 05:19 | 22.93371 | 49.89401 | 29858 ft | 472 kts | 271° |
| 2026-05-06 05:19 | 22.93745 | 49.82305 | 29855 ft | 469 kts | 271° |
| 2026-05-06 05:20 | 22.94113 | 49.75229 | 29864 ft | 469 kts | 271° |
| 2026-05-06 05:20 | 22.94477 | 49.68196 | 29868 ft | 470 kts | 271° |
| 2026-05-06 05:21 | 22.94840 | 49.61107 | 29866 ft | 470 kts | 271° |
| 2026-05-06 05:21 | 22.95200 | 49.54023 | 29866 ft | 470 kts | 271° |
| 2026-05-06 05:22 | 22.95555 | 49.46981 | 29869 ft | 469 kts | 271° |
| 2026-05-06 05:22 | 22.95908 | 49.39896 | 29863 ft | 469 kts | 271° |
| 2026-05-06 05:23 | 22.96258 | 49.32828 | 29862 ft | 469 kts | 271° |
| 2026-05-06 05:23 | 22.96777 | 49.22208 | 29869 ft | 470 kts | 271° |
| 2026-05-06 05:24 | 22.97119 | 49.15141 | 29865 ft | 467 kts | 271° |
| 2026-05-06 05:24 | 22.97456 | 49.08103 | 29866 ft | 466 kts | 271° |
| 2026-05-06 05:25 | 22.97787 | 49.01123 | 29865 ft | 467 kts | 271° |
| 2026-05-06 05:25 | 22.98118 | 48.94084 | 29860 ft | 467 kts | 271° |
| 2026-05-06 05:26 | 22.98445 | 48.87052 | 29863 ft | 467 kts | 271° |
| 2026-05-06 05:26 | 22.98770 | 48.80006 | 29868 ft | 467 kts | 271° |
| 2026-05-06 05:27 | 22.99091 | 48.72975 | 29867 ft | 466 kts | 271° |
| 2026-05-06 05:27 | 22.99410 | 48.65936 | 29876 ft | 466 kts | 271° |
| 2026-05-06 05:28 | 22.99723 | 48.58941 | 29877 ft | 466 kts | 271° |
| 2026-05-06 05:28 | 23.00035 | 48.51906 | 29877 ft | 466 kts | 271° |
| 2026-05-06 05:29 | 23.00343 | 48.44891 | 29874 ft | 462 kts | 271° |
| 2026-05-06 05:29 | 23.00647 | 48.37906 | 29876 ft | 463 kts | 271° |
| 2026-05-06 05:30 | 23.00946 | 48.30946 | 29874 ft | 463 kts | 271° |
| 2026-05-06 05:30 | 23.01244 | 48.23966 | 29867 ft | 463 kts | 271° |
| 2026-05-06 05:31 | 23.01538 | 48.16984 | 29872 ft | 461 kts | 271° |
| 2026-05-06 05:31 | 23.01828 | 48.10022 | 29870 ft | 462 kts | 271° |
| 2026-05-06 05:32 | 23.02536 | 48.04269 | 29870 ft | 464 kts | 279° |
| 2026-05-06 05:32 | 23.03973 | 47.97416 | 29869 ft | 466 kts | 281° |
| 2026-05-06 05:33 | 23.05458 | 47.90532 | 29881 ft | 467 kts | 281° |
| 2026-05-06 05:33 | 23.06943 | 47.83693 | 29875 ft | 467 kts | 282° |
| 2026-05-06 05:34 | 23.08040 | 47.80361 | 29875 ft | 471 kts | 293° |
| 2026-05-06 05:34 | 23.09749 | 47.77309 | 29880 ft | 479 kts | 304° |
| 2026-05-06 05:34 | 23.12024 | 47.74643 | 29884 ft | 485 kts | 316° |
| 2026-05-06 05:34 | 23.14768 | 47.72482 | 29882 ft | 490 kts | 326° |
| 2026-05-06 05:35 | 23.20758 | 47.68873 | 29885 ft | 491 kts | 327° |
| 2026-05-06 05:35 | 23.26673 | 47.65110 | 29885 ft | 492 kts | 324° |
| 2026-05-06 05:36 | 23.32469 | 47.61218 | 29889 ft | 492 kts | 324° |
| 2026-05-06 05:36 | 23.38282 | 47.57272 | 29890 ft | 492 kts | 324° |
| 2026-05-06 05:37 | 23.44098 | 47.53324 | 29892 ft | 492 kts | 323° |
| 2026-05-06 05:37 | 23.49880 | 47.49397 | 29892 ft | 492 kts | 324° |
| 2026-05-06 05:38 | 23.55706 | 47.45440 | 29892 ft | 492 kts | 324° |
| 2026-05-06 05:38 | 23.61522 | 47.41487 | 29900 ft | 492 kts | 323° |
| 2026-05-06 05:39 | 23.67283 | 47.37566 | 29895 ft | 490 kts | 323° |
| 2026-05-06 05:39 | 23.73076 | 47.33617 | 29899 ft | 491 kts | 323° |